createdAt,value
2023-01-18T00:02:33.783Z,1.95
2023-01-18T00:06:22.746Z,1.91
2023-01-18T00:10:11.734Z,1.88
2023-01-18T00:13:59.527Z,1.84
2023-01-18T00:33:26.037Z,1.67
2023-01-18T00:37:14.939Z,1.62
2023-01-18T00:41:04.226Z,1.58
2023-01-18T00:44:43.069Z,1.55
2023-01-18T00:48:32.089Z,1.50
2023-01-18T00:52:24.037Z,1.45
2023-01-18T00:56:13.329Z,1.40
2023-01-18T00:59:56.342Z,1.35
2023-01-18T01:03:45.615Z,1.30
2023-01-18T01:07:34.840Z,1.26
2023-01-18T01:11:24.925Z,1.20
2023-01-18T01:15:15.258Z,1.14
2023-01-18T01:19:03.079Z,1.07
2023-01-18T01:22:50.319Z,1.01
2023-01-18T01:30:36.698Z,0.94
2023-01-18T01:34:25.805Z,0.88
2023-01-18T01:38:13.629Z,0.86
2023-01-18T01:42:03.254Z,0.85
2023-01-18T01:45:52.450Z,0.82
2023-01-18T01:49:50.743Z,0.82
2023-01-18T02:09:16.831Z,0.81
2023-01-18T02:13:06.418Z,0.80
2023-01-18T02:16:52.655Z,0.78
2023-01-18T02:20:50.720Z,0.79
2023-01-18T02:24:41.175Z,0.78
2023-01-18T02:28:10.523Z,0.77
2023-01-18T02:32:02.361Z,0.75
2023-01-18T02:40:08.245Z,0.74
2023-01-18T02:43:55.918Z,0.73
2023-01-18T02:47:44.916Z,0.73
2023-01-18T02:51:34.330Z,0.74
2023-01-18T02:55:24.332Z,0.74
2023-01-18T03:00:07.867Z,0.78
2023-01-18T03:03:55.404Z,0.78
2023-01-18T03:07:43.357Z,0.77
2023-01-18T03:16:25.460Z,0.75
2023-01-18T03:20:25.558Z,0.72
2023-01-18T03:24:14.598Z,0.72
2023-01-18T03:28:00.112Z,0.70
2023-01-18T03:31:47.044Z,0.67
2023-01-18T03:43:57.201Z,0.55
2023-01-18T03:47:46.388Z,0.52
2023-01-18T03:51:47.399Z,0.51
2023-01-18T03:55:42.510Z,0.51
2023-01-18T03:59:31.676Z,0.49
2023-01-18T04:03:21.619Z,0.48
2023-01-18T04:07:11.986Z,0.48
2023-01-18T04:11:02.062Z,0.46
2023-01-18T04:14:51.327Z,0.46
2023-01-18T04:18:39.517Z,0.47
2023-01-18T04:22:29.635Z,0.48
2023-01-18T04:26:19.542Z,0.49
2023-01-18T04:30:09.370Z,0.51
2023-01-18T04:33:59.989Z,0.51
2023-01-18T04:37:55.060Z,0.53
2023-01-18T04:41:47.062Z,0.54
2023-01-18T04:45:36.188Z,0.52
2023-01-18T04:49:25.403Z,0.52
2023-01-18T04:53:14.526Z,0.54
2023-01-18T04:57:03.583Z,0.55
2023-01-18T05:00:52.798Z,0.57
2023-01-18T05:04:41.997Z,0.57
2023-01-18T05:08:31.772Z,0.56
2023-01-18T05:12:22.172Z,0.57
2023-01-18T05:28:02.096Z,0.67
2023-01-18T05:31:51.245Z,0.69
2023-01-18T05:35:32.809Z,0.73
2023-01-18T05:39:51.216Z,0.77
2023-01-18T05:43:40.273Z,0.77
2023-01-18T05:47:29.238Z,0.76
2023-01-18T05:51:18.774Z,0.77
2023-01-18T05:55:07.817Z,0.78
2023-01-18T05:58:56.748Z,0.80
2023-01-18T06:02:38.184Z,0.81
2023-01-18T06:06:57.884Z,0.82
2023-01-18T06:10:46.972Z,0.83
2023-01-18T06:14:35.966Z,0.84
2023-01-18T06:18:24.934Z,0.85
2023-01-18T06:22:14.430Z,0.85
2023-01-18T06:26:03.630Z,0.85
2023-01-18T06:29:53.010Z,0.85
2023-01-18T06:33:44.045Z,0.84
2023-01-18T06:53:01.561Z,0.96
2023-01-18T06:56:59.515Z,0.94
2023-01-18T07:00:48.937Z,0.92
2023-01-18T07:04:38.264Z,0.93
2023-01-18T07:08:27.385Z,0.97
2023-01-18T07:12:16.480Z,0.98
2023-01-18T07:16:06.437Z,0.98
2023-01-18T07:19:56.357Z,1.00
2023-01-18T07:23:45.977Z,1.02
2023-01-18T07:27:15.606Z,1.04
2023-01-18T07:31:05.167Z,1.07
2023-01-18T07:34:57.518Z,1.10
2023-01-18T07:38:48.808Z,1.13
2023-01-18T07:42:37.932Z,1.14
2023-01-18T07:46:26.961Z,1.15
2023-01-18T07:50:15.995Z,1.15
2023-01-18T07:54:05.248Z,1.17
2023-01-18T07:57:54.300Z,1.16
2023-01-18T08:01:46.668Z,1.15
2023-01-18T08:05:35.786Z,1.15
2023-01-18T08:09:26.634Z,1.14
2023-01-18T08:13:17.453Z,1.15
2023-01-18T08:17:11.073Z,1.15
2023-01-18T08:21:20.111Z,1.18
2023-01-18T08:25:11.269Z,1.18
2023-01-18T08:29:01.659Z,1.16
2023-01-18T08:32:43.801Z,1.14
2023-01-18T08:36:32.320Z,1.14
2023-01-18T08:40:22.517Z,1.13
2023-01-18T08:44:13.772Z,1.12
2023-01-18T08:47:42.542Z,1.12
2023-01-18T08:51:31.531Z,1.13
2023-01-18T08:55:23.886Z,1.14
2023-01-18T08:59:13.076Z,1.14
2023-01-18T09:03:02.730Z,1.16
2023-01-18T09:06:52.771Z,1.17
2023-01-18T09:10:43.798Z,1.18
2023-01-18T09:14:34.555Z,1.19
2023-01-18T09:18:24.276Z,1.20
2023-01-18T09:22:13.283Z,1.20
2023-01-18T09:52:09.452Z,1.37
2023-01-18T09:56:00.342Z,1.41
2023-01-18T10:00:05.228Z,1.42
2023-01-18T10:03:40.032Z,1.43
2023-01-18T10:07:21.832Z,1.45
2023-01-18T10:11:11.050Z,1.48
2023-01-18T10:15:03.176Z,1.49
2023-01-18T10:18:54.194Z,1.55
2023-01-18T10:31:35.225Z,1.79
2023-01-18T10:35:26.959Z,1.74
2023-01-18T10:39:16.450Z,1.77
2023-01-18T10:43:14.720Z,1.80
2023-01-18T10:47:04.423Z,1.81
2023-01-18T10:58:45.316Z,1.78
2023-01-18T11:02:18.483Z,1.75
2023-01-18T11:06:13.473Z,1.74
2023-01-18T11:18:17.973Z,1.74
2023-01-18T11:22:06.936Z,1.73
2023-01-18T11:25:56.813Z,1.67
2023-01-18T11:37:49.346Z,1.62
2023-01-18T11:41:41.502Z,1.59
2023-01-18T11:45:46.016Z,1.58
2023-01-18T11:57:48.769Z,1.64
2023-01-18T12:01:36.111Z,1.65
2023-01-18T12:05:31.178Z,1.69
2023-01-18T12:09:32.018Z,1.76
2023-01-18T12:13:22.053Z,1.82
2023-01-18T12:26:20.002Z,1.77
2023-01-18T12:30:20.620Z,1.71
2023-01-18T12:42:36.395Z,1.55
2023-01-18T12:46:46.037Z,1.41
2023-01-18T13:02:28.962Z,1.20
2023-01-18T13:06:24.996Z,1.31
2023-01-18T13:22:39.788Z,1.86
2023-01-18T13:26:48.696Z,1.96
2023-01-18T13:30:35.727Z,2.08
2023-01-18T13:35:20.635Z,2.26
2023-01-18T13:39:06.471Z,2.43
2023-01-18T13:43:23.034Z,2.63
2023-01-18T13:47:17.936Z,2.72
2023-01-18T13:51:09.206Z,2.75
2023-01-18T13:54:59.579Z,2.79
2023-01-18T14:06:45.802Z,2.83
2023-01-18T14:10:35.347Z,2.81
2023-01-18T14:22:55.751Z,2.86
2023-01-18T14:26:50.431Z,2.82
2023-01-18T14:34:36.853Z,2.82
2023-01-18T14:38:28.694Z,2.79
2023-01-18T14:42:16.827Z,2.78
2023-01-18T14:58:01.634Z,2.84
2023-01-18T15:01:53.380Z,2.82
2023-01-18T15:05:52.326Z,2.81
2023-01-18T15:29:05.050Z,2.80
2023-01-18T15:33:00.300Z,2.70
2023-01-18T15:36:49.971Z,2.64
2023-01-18T15:40:42.628Z,2.59
2023-01-18T15:44:31.724Z,2.53
2023-01-18T16:00:16.396Z,2.26
2023-01-18T16:04:08.476Z,2.26
2023-01-18T16:16:26.303Z,2.26
2023-01-18T16:20:15.465Z,2.27
2023-01-18T16:24:06.969Z,2.28
2023-01-18T16:28:01.033Z,2.31
2023-01-18T16:44:06.851Z,2.56
2023-01-18T16:47:55.045Z,2.59
2023-01-18T16:51:44.626Z,2.62
2023-01-18T16:55:31.328Z,2.66
2023-01-18T16:59:19.167Z,2.64
2023-01-18T17:03:07.292Z,2.61
2023-01-18T17:06:57.960Z,2.61
2023-01-18T17:11:01.224Z,2.58
2023-01-18T17:22:53.319Z,2.53
2023-01-18T17:26:43.031Z,2.49
2023-01-18T17:30:32.630Z,2.47
2023-01-18T17:34:27.100Z,2.45
2023-01-18T17:38:24.348Z,2.37
2023-01-18T17:42:18.969Z,2.32
2023-01-18T17:46:12.089Z,2.31
2023-01-18T17:50:01.589Z,2.30
2023-01-18T18:05:42.030Z,2.44
2023-01-18T18:09:32.063Z,2.45
2023-01-18T18:13:21.484Z,2.45
2023-01-18T18:17:10.719Z,2.45
2023-01-18T18:20:59.954Z,2.44
2023-01-18T18:24:50.858Z,2.42
2023-01-18T18:28:39.931Z,2.39
2023-01-18T18:32:29.202Z,2.37
2023-01-18T18:36:51.009Z,2.39
2023-01-18T18:40:40.266Z,2.40
2023-01-18T18:44:29.968Z,2.47
2023-01-18T18:48:19.090Z,2.54
2023-01-18T18:52:09.665Z,2.57
2023-01-18T18:55:58.600Z,2.59
2023-01-18T18:59:21.050Z,2.61
2023-01-18T19:03:10.120Z,2.63
2023-01-18T19:07:00.143Z,2.67
2023-01-18T19:10:51.390Z,2.69
2023-01-18T19:14:43.068Z,2.66
2023-01-18T19:18:12.596Z,2.59
2023-01-18T19:22:02.131Z,2.50
2023-01-18T19:25:52.054Z,2.41
2023-01-18T19:29:04.242Z,2.35
2023-01-18T19:32:53.433Z,2.29
2023-01-18T19:36:48.423Z,2.24
2023-01-18T19:40:37.557Z,2.21
2023-01-18T19:44:26.855Z,2.16
2023-01-18T19:48:15.711Z,2.12
2023-01-18T19:52:05.005Z,2.11
2023-01-18T19:55:59.793Z,2.06
2023-01-18T19:59:56.584Z,2.04
2023-01-18T20:03:46.298Z,2.00
2023-01-18T20:07:16.499Z,2.00
2023-01-18T20:11:00.361Z,2.02
2023-01-18T20:14:51.237Z,2.03
2023-01-18T20:19:11.026Z,2.00
2023-01-18T20:23:00.758Z,1.99
2023-01-18T20:26:55.064Z,1.95
2023-01-18T20:30:45.637Z,1.93
2023-01-18T20:34:35.013Z,1.92
2023-01-18T20:38:25.921Z,1.93
2023-01-18T20:42:14.780Z,1.97
2023-01-18T20:46:06.737Z,1.97
2023-01-18T20:49:55.657Z,1.95
2023-01-18T20:53:46.229Z,1.95
2023-01-18T20:57:58.666Z,1.95
2023-01-18T21:02:04.862Z,1.97
2023-01-18T21:06:22.484Z,1.97
2023-01-18T21:30:00.908Z,1.93
2023-01-18T21:33:49.897Z,1.93
2023-01-18T21:37:29.450Z,1.92
2023-01-18T21:41:18.725Z,1.89
2023-01-18T21:45:05.035Z,1.86
2023-01-18T21:48:54.157Z,1.89
2023-01-18T21:52:41.485Z,1.94
2023-01-18T21:56:30.496Z,1.98
2023-01-18T22:00:19.669Z,2.03
2023-01-18T22:04:08.423Z,2.10
2023-01-18T22:07:57.862Z,2.14
2023-01-18T22:11:48.350Z,2.15
2023-01-18T22:27:48.533Z,2.22
2023-01-18T22:31:36.068Z,2.18
2023-01-18T22:35:23.978Z,2.18
2023-01-18T22:47:17.179Z,2.17
2023-01-18T22:51:07.514Z,2.14
2023-01-18T22:54:57.439Z,2.12
2023-01-18T22:59:16.040Z,2.10
2023-01-18T23:03:05.139Z,2.00
2023-01-18T23:06:54.491Z,1.90
2023-01-18T23:10:43.519Z,1.78
2023-01-18T23:14:30.771Z,1.64
2023-01-18T23:18:19.804Z,1.52
2023-01-18T23:22:09.378Z,1.39
2023-01-18T23:25:58.472Z,1.37
2023-01-18T23:29:47.512Z,1.40
2023-01-18T23:33:36.831Z,1.43
2023-01-18T23:37:26.248Z,1.43
2023-01-18T23:41:12.901Z,1.37
2023-01-18T23:45:00.379Z,1.27
2023-01-18T23:48:47.658Z,1.18
2023-01-18T23:52:35.217Z,1.12
2023-01-18T23:56:24.251Z,1.05
2023-01-18T23:59:53.284Z,0.99
